createdAt,value
2019-04-28T00:08:35.522Z,1010.4
2019-04-28T00:18:47.178Z,1010.4
2019-04-28T00:29:40.071Z,1010.4
2019-04-28T00:40:17.372Z,1010.4
2019-04-28T00:51:01.830Z,1010.6
2019-04-28T01:01:12.621Z,1010.5
2019-04-28T01:11:56.803Z,1010.5
2019-04-28T01:22:07.704Z,1010.5
2019-04-28T01:32:52.477Z,1010.4
2019-04-28T01:45:03.759Z,1010.5
2019-04-28T01:55:17.176Z,1010.5
2019-04-28T02:05:30.400Z,1010.6
2019-04-28T02:15:45.085Z,1010.7
2019-04-28T02:25:56.475Z,1010.7
2019-04-28T02:36:12.224Z,1010.7
2019-04-28T02:47:34.109Z,1010.8
2019-04-28T02:57:43.765Z,1010.9
2019-04-28T03:23:12.300Z,1011.1
2019-04-28T03:33:57.008Z,1011.2
2019-04-28T03:44:11.449Z,1011.2
2019-04-28T03:54:24.686Z,1011.3
2019-04-28T04:05:10.986Z,1011.3
2019-04-28T05:09:56.652Z,1011.8
2019-04-28T05:20:10.013Z,1011.8
2019-04-28T05:31:11.287Z,1011.9
2019-04-28T05:48:01.443Z,1012.1
2019-04-28T05:59:44.456Z,1012.1
2019-04-28T06:10:42.909Z,1012.2
2019-04-28T06:20:56.451Z,1012.2
2019-04-28T06:34:25.278Z,1012.3
2019-04-28T06:45:47.956Z,1012.4
2019-04-28T06:57:58.926Z,1012.7
2019-04-28T07:08:49.625Z,1012.7
2019-04-28T07:20:08.381Z,1012.6
2019-04-28T07:31:41.302Z,1012.7
2019-04-28T07:42:48.562Z,1012.8
2019-04-28T07:54:22.263Z,1012.9
2019-04-28T08:05:21.955Z,1012.9
2019-04-28T08:16:10.902Z,1012.9
2019-04-28T08:26:31.713Z,1013.0
2019-04-28T08:36:51.776Z,1013.1
2019-04-28T08:47:05.882Z,1013.2
2019-04-28T08:57:52.487Z,1013.3
2019-04-28T09:08:36.819Z,1013.5
2019-04-28T09:18:51.059Z,1013.5
2019-04-28T09:29:07.666Z,1013.6
2019-04-28T09:39:52.788Z,1013.6
2019-04-28T09:50:48.440Z,1013.5
2019-04-28T10:00:59.596Z,1013.6
2019-04-28T10:11:14.091Z,1013.6
2019-04-28T10:21:28.466Z,1013.8
2019-04-28T10:34:06.351Z,1013.7
2019-04-28T10:47:28.384Z,1013.8
2019-04-28T11:15:30.082Z,1013.8
2019-04-28T13:50:32.489Z,1014.9
2019-04-28T14:23:43.002Z,1014.9
2019-04-28T15:07:50.869Z,1015.2
2019-04-28T15:49:13.904Z,1015.2
2019-04-28T16:02:42.927Z,1015.2
2019-04-28T16:33:16.698Z,1015.4
2019-04-28T16:46:28.270Z,1015.5
2019-04-28T16:59:19.715Z,1015.5
2019-04-28T17:11:16.112Z,1015.6
2019-04-28T18:13:00.281Z,1016.3
